sensor_id;sensor_type;location;lat;lon;timestamp;pressure;altitude;pressure_sealevel;temperature;humidity
77077;BME280;66003;52.286;104.306;2023-02-28T00:00:28;97950.78;;;-5.87;42.88
77077;BME280;66003;52.286;104.306;2023-02-28T00:02:54;97955.84;;;-5.75;42.89
77077;BME280;66003;52.286;104.306;2023-02-28T00:05:22;97998.88;;;-5.52;42.63
77077;BME280;66003;52.286;104.306;2023-02-28T00:07:49;97972.72;;;-5.89;42.48
77077;BME280;66003;52.286;104.306;2023-02-28T00:10:21;97994.63;;;-5.72;41.92
77077;BME280;66003;52.286;104.306;2023-02-28T00:12:49;97994.78;;;-5.93;42.87
77077;BME280;66003;52.286;104.306;2023-02-28T00:15:16;97995.84;;;-5.76;41.99
77077;BME280;66003;52.286;104.306;2023-02-28T00:17:43;97981.91;;;-6.04;43.92
77077;BME280;66003;52.286;104.306;2023-02-28T00:20:10;97989.16;;;-5.69;43.15
77077;BME280;66003;52.286;104.306;2023-02-28T00:22:37;97988.06;;;-5.48;42.22
77077;BME280;66003;52.286;104.306;2023-02-28T00:25:04;97953.41;;;-6.06;43.26
77077;BME280;66003;52.286;104.306;2023-02-28T00:27:32;97997.53;;;-5.56;43.16
77077;BME280;66003;52.286;104.306;2023-02-28T00:29:58;97968.75;;;-5.55;42.36
77077;BME280;66003;52.286;104.306;2023-02-28T00:32:24;98003.09;;;-5.13;42.18
77077;BME280;66003;52.286;104.306;2023-02-28T00:34:53;98003.75;;;-5.01;41.75
77077;BME280;66003;52.286;104.306;2023-02-28T00:37:22;98026.50;;;-4.84;40.94
77077;BME280;66003;52.286;104.306;2023-02-28T00:39:48;98024.88;;;-5.04;41.56
77077;BME280;66003;52.286;104.306;2023-02-28T00:42:14;98033.13;;;-5.18;41.29
77077;BME280;66003;52.286;104.306;2023-02-28T00:44:40;98038.63;;;-5.40;42.34
77077;BME280;66003;52.286;104.306;2023-02-28T00:47:06;98000.25;;;-5.67;42.57
77077;BME280;66003;52.286;104.306;2023-02-28T00:49:33;98042.34;;;-5.33;42.29
77077;BME280;66003;52.286;104.306;2023-02-28T00:51:59;98041.38;;;-5.32;42.14
77077;BME280;66003;52.286;104.306;2023-02-28T00:54:26;98015.47;;;-5.43;42.29
77077;BME280;66003;52.286;104.306;2023-02-28T00:56:52;98027.63;;;-5.05;41.67
77077;BME280;66003;52.286;104.306;2023-02-28T00:59:18;98048.16;;;-4.83;41.55
77077;BME280;66003;52.286;104.306;2023-02-28T01:01:46;98025.84;;;-5.05;41.57
77077;BME280;66003;52.286;104.306;2023-02-28T01:04:12;98056.94;;;-4.65;41.10
77077;BME280;66003;52.286;104.306;2023-02-28T01:06:39;98017.53;;;-4.72;41.35
77077;BME280;66003;52.286;104.306;2023-02-28T01:09:06;98060.13;;;-4.34;41.14
77077;BME280;66003;52.286;104.306;2023-02-28T01:11:33;98064.38;;;-4.33;40.19
77077;BME280;66003;52.286;104.306;2023-02-28T01:14:16;98072.75;;;-4.29;40.05
77077;BME280;66003;52.286;104.306;2023-02-28T01:16:43;98067.97;;;-4.07;39.51
77077;BME280;66003;52.286;104.306;2023-02-28T01:19:10;98007.72;;;-4.23;39.25
77077;BME280;66003;52.286;104.306;2023-02-28T01:21:36;98085.91;;;-3.67;38.71
77077;BME280;66003;52.286;104.306;2023-02-28T01:24:03;98089.09;;;-3.45;38.60
77077;BME280;66003;52.286;104.306;2023-02-28T01:26:31;98084.53;;;-3.43;39.20
77077;BME280;66003;52.286;104.306;2023-02-28T01:28:57;98087.28;;;-3.27;39.16
77077;BME280;66003;52.286;104.306;2023-02-28T01:31:24;98042.78;;;-3.35;39.31
77077;BME280;66003;52.286;104.306;2023-02-28T01:33:50;98082.28;;;-3.03;39.47
77077;BME280;66003;52.286;104.306;2023-02-28T01:36:22;98095.78;;;-2.72;39.72
77077;BME280;66003;52.286;104.306;2023-02-28T01:38:49;98098.78;;;-2.41;39.41
77077;BME280;66003;52.286;104.306;2023-02-28T01:41:27;98069.88;;;-2.31;39.32
77077;BME280;66003;52.286;104.306;2023-02-28T01:44:05;98099.88;;;-1.92;39.06
77077;BME280;66003;52.286;104.306;2023-02-28T01:46:34;98097.31;;;-1.75;39.04
77077;BME280;66003;52.286;104.306;2023-02-28T01:49:14;98100.16;;;-1.61;39.21
77077;BME280;66003;52.286;104.306;2023-02-28T01:51:50;98111.47;;;-1.52;39.52
77077;BME280;66003;52.286;104.306;2023-02-28T01:54:29;98088.91;;;-1.45;39.84
77077;BME280;66003;52.286;104.306;2023-02-28T01:57:05;98073.28;;;-1.63;40.17
77077;BME280;66003;52.286;104.306;2023-02-28T01:59:36;98080.00;;;-1.60;40.23
77077;BME280;66003;52.286;104.306;2023-02-28T02:02:06;98094.47;;;-1.48;40.43
77077;BME280;66003;52.286;104.306;2023-02-28T02:04:38;98108.97;;;-1.20;40.08
77077;BME280;66003;52.286;104.306;2023-02-28T02:07:06;98126.03;;;-0.91;39.95
77077;BME280;66003;52.286;104.306;2023-02-28T02:09:32;98110.81;;;-0.71;39.23
77077;BME280;66003;52.286;104.306;2023-02-28T02:12:01;98135.22;;;-0.30;38.95
77077;BME280;66003;52.286;104.306;2023-02-28T02:17:18;98100.88;;;-0.05;38.32
77077;BME280;66003;52.286;104.306;2023-02-28T02:36:42;98101.19;;;-0.08;39.04
77077;BME280;66003;52.286;104.306;2023-02-28T02:39:24;98143.66;;;0.12;38.84
77077;BME280;66003;52.286;104.306;2023-02-28T02:41:58;98110.59;;;-0.13;38.79
77077;BME280;66003;52.286;104.306;2023-02-28T02:47:04;98139.81;;;0.39;38.69
77077;BME280;66003;52.286;104.306;2023-02-28T02:49:35;98126.00;;;0.45;38.88
77077;BME280;66003;52.286;104.306;2023-02-28T02:52:06;98144.91;;;0.80;37.99
77077;BME280;66003;52.286;104.306;2023-02-28T02:54:40;98112.63;;;0.86;37.47
77077;BME280;66003;52.286;104.306;2023-02-28T02:57:10;98151.09;;;1.40;37.64
77077;BME280;66003;52.286;104.306;2023-02-28T02:59:40;98158.22;;;1.55;36.55
77077;BME280;66003;52.286;104.306;2023-02-28T03:02:11;98121.66;;;1.37;36.69
77077;BME280;66003;52.286;104.306;2023-02-28T03:04:43;98121.41;;;1.47;36.70
77077;BME280;66003;52.286;104.306;2023-02-28T03:07:11;98108.63;;;1.58;36.51
77077;BME280;66003;52.286;104.306;2023-02-28T03:09:37;98077.66;;;1.60;36.42
77077;BME280;66003;52.286;104.306;2023-02-28T03:12:07;98103.34;;;2.10;35.63
77077;BME280;66003;52.286;104.306;2023-02-28T03:20:07;98119.50;;;2.37;35.33
77077;BME280;66003;52.286;104.306;2023-02-28T03:23:01;98125.94;;;2.49;35.86
77077;BME280;66003;52.286;104.306;2023-02-28T03:26:16;98151.91;;;2.45;35.61
77077;BME280;66003;52.286;104.306;2023-02-28T03:28:41;98142.59;;;2.49;35.91
77077;BME280;66003;52.286;104.306;2023-02-28T03:31:22;98121.88;;;2.32;36.19
77077;BME280;66003;52.286;104.306;2023-02-28T03:33:57;98147.41;;;2.61;35.52
77077;BME280;66003;52.286;104.306;2023-02-28T03:36:30;98143.59;;;2.78;36.17
77077;BME280;66003;52.286;104.306;2023-02-28T03:39:05;98121.38;;;3.08;35.46
77077;BME280;66003;52.286;104.306;2023-02-28T03:41:41;98146.13;;;3.92;34.45
77077;BME280;66003;52.286;104.306;2023-02-28T03:44:19;98056.53;;;4.17;33.42
77077;BME280;66003;52.286;104.306;2023-02-28T03:47:02;98143.16;;;5.45;32.68
77077;BME280;66003;52.286;104.306;2023-02-28T03:49:37;98057.66;;;5.10;31.96
77077;BME280;66003;52.286;104.306;2023-02-28T03:52:09;98147.91;;;5.96;31.44
77077;BME280;66003;52.286;104.306;2023-02-28T03:54:44;98124.00;;;6.15;31.62
77077;BME280;66003;52.286;104.306;2023-02-28T04:00:10;98119.31;;;6.24;30.88
77077;BME280;66003;52.286;104.306;2023-02-28T04:02:39;98093.59;;;5.72;31.47
77077;BME280;66003;52.286;104.306;2023-02-28T04:05:07;98137.47;;;5.68;31.51
77077;BME280;66003;52.286;104.306;2023-02-28T04:07:33;98140.31;;;5.53;32.04
77077;BME280;66003;52.286;104.306;2023-02-28T04:09:59;98130.69;;;5.19;32.67
77077;BME280;66003;52.286;104.306;2023-02-28T04:12:25;98106.56;;;5.01;32.90
77077;BME280;66003;52.286;104.306;2023-02-28T04:14:51;98103.91;;;5.01;33.02
77077;BME280;66003;52.286;104.306;2023-02-28T04:17:18;98097.19;;;4.98;33.28
77077;BME280;66003;52.286;104.306;2023-02-28T04:19:44;98141.09;;;5.27;33.01
77077;BME280;66003;52.286;104.306;2023-02-28T04:22:10;98137.44;;;5.48;33.15
77077;BME280;66003;52.286;104.306;2023-02-28T04:24:36;98147.25;;;5.48;32.83
77077;BME280;66003;52.286;104.306;2023-02-28T04:27:08;98114.63;;;5.60;32.62
77077;BME280;66003;52.286;104.306;2023-02-28T04:29:35;98133.03;;;6.01;32.30
77077;BME280;66003;52.286;104.306;2023-02-28T04:32:02;98142.19;;;6.25;32.20
77077;BME280;66003;52.286;104.306;2023-02-28T04:34:30;98142.91;;;6.59;31.59
77077;BME280;66003;52.286;104.306;2023-02-28T04:36:56;98127.09;;;6.77;31.34
77077;BME280;66003;52.286;104.306;2023-02-28T04:39:24;98110.19;;;6.65;31.18
77077;BME280;66003;52.286;104.306;2023-02-28T04:41:50;98135.69;;;7.23;30.97
77077;BME280;66003;52.286;104.306;2023-02-28T04:44:17;98091.63;;;7.03;30.96
77077;BME280;66003;52.286;104.306;2023-02-28T04:46:43;98100.75;;;7.13;30.73
77077;BME280;66003;52.286;104.306;2023-02-28T04:49:12;98123.47;;;7.09;30.72
77077;BME280;66003;52.286;104.306;2023-02-28T04:51:39;98123.38;;;6.84;31.15
77077;BME280;66003;52.286;104.306;2023-02-28T04:54:06;98123.84;;;6.75;31.29
77077;BME280;66003;52.286;104.306;2023-02-28T04:56:32;98126.91;;;6.78;30.69
77077;BME280;66003;52.286;104.306;2023-02-28T04:58:59;98116.81;;;6.49;31.18
77077;BME280;66003;52.286;104.306;2023-02-28T05:01:27;98095.00;;;6.14;31.44
77077;BME280;66003;52.286;104.306;2023-02-28T05:03:56;98084.41;;;5.68;32.24
77077;BME280;66003;52.286;104.306;2023-02-28T05:06:24;98127.09;;;5.93;32.36
77077;BME280;66003;52.286;104.306;2023-02-28T05:08:51;98114.00;;;6.04;32.51
77077;BME280;66003;52.286;104.306;2023-02-28T05:13:45;98085.13;;;6.41;31.68
77077;BME280;66003;52.286;104.306;2023-02-28T05:16:11;98106.25;;;6.74;31.83
77077;BME280;66003;52.286;104.306;2023-02-28T05:18:38;98087.47;;;6.75;31.22
77077;BME280;66003;52.286;104.306;2023-02-28T05:21:04;98107.28;;;7.17;30.43
77077;BME280;66003;52.286;104.306;2023-02-28T05:23:31;98073.56;;;7.18;28.95
77077;BME280;66003;52.286;104.306;2023-02-28T05:25:57;98071.72;;;7.12;29.55
77077;BME280;66003;52.286;104.306;2023-02-28T05:28:23;98091.34;;;6.73;29.24
77077;BME280;66003;52.286;104.306;2023-02-28T05:30:49;98074.03;;;5.93;29.49
77077;BME280;66003;52.286;104.306;2023-02-28T05:33:15;98096.84;;;5.80;30.33
77077;BME280;66003;52.286;104.306;2023-02-28T05:35:42;98047.94;;;5.30;30.92
77077;BME280;66003;52.286;104.306;2023-02-28T05:38:08;98085.84;;;5.44;31.37
77077;BME280;66003;52.286;104.306;2023-02-28T05:40:34;98076.47;;;5.55;31.27
77077;BME280;66003;52.286;104.306;2023-02-28T05:43:01;98072.97;;;5.80;30.92
77077;BME280;66003;52.286;104.306;2023-02-28T05:45:27;98050.31;;;6.04;30.89
77077;BME280;66003;52.286;104.306;2023-02-28T05:47:54;98085.31;;;6.52;30.57
77077;BME280;66003;52.286;104.306;2023-02-28T05:50:21;98058.13;;;6.57;30.29
77077;BME280;66003;52.286;104.306;2023-02-28T05:52:50;98054.94;;;6.35;30.08
77077;BME280;66003;52.286;104.306;2023-02-28T05:55:18;98045.06;;;5.78;30.93
77077;BME280;66003;52.286;104.306;2023-02-28T05:57:44;98054.25;;;5.42;31.43
77077;BME280;66003;52.286;104.306;2023-02-28T06:54:04;98034.88;;;1.73;37.62
77077;BME280;66003;52.286;104.306;2023-02-28T06:56:31;97991.50;;;2.05;36.38
77077;BME280;66003;52.286;104.306;2023-02-28T06:58:57;98016.78;;;2.50;36.19
77077;BME280;66003;52.286;104.306;2023-02-28T07:01:23;98007.28;;;2.70;35.36
77077;BME280;66003;52.286;104.306;2023-02-28T07:03:50;98024.47;;;2.87;35.34
77077;BME280;66003;52.286;104.306;2023-02-28T07:06:19;97994.69;;;2.72;34.94
77077;BME280;66003;52.286;104.306;2023-02-28T07:08:45;98030.00;;;3.14;34.54
77077;BME280;66003;52.286;104.306;2023-02-28T07:11:11;98013.56;;;2.90;34.33
77077;BME280;66003;52.286;104.306;2023-02-28T07:13:37;98021.69;;;2.96;34.58
77077;BME280;66003;52.286;104.306;2023-02-28T07:16:06;98014.41;;;2.98;35.14
77077;BME280;66003;52.286;104.306;2023-02-28T07:18:33;97964.72;;;2.59;34.36
77077;BME280;66003;52.286;104.306;2023-02-28T07:21:02;97981.69;;;2.71;34.82
77077;BME280;66003;52.286;104.306;2023-02-28T07:23:28;98022.09;;;2.93;34.49
77077;BME280;66003;52.286;104.306;2023-02-28T07:25:54;98011.09;;;2.89;34.26
77077;BME280;66003;52.286;104.306;2023-02-28T07:28:20;98011.34;;;2.94;34.13
77077;BME280;66003;52.286;104.306;2023-02-28T07:30:47;97997.25;;;2.87;34.01
77077;BME280;66003;52.286;104.306;2023-02-28T07:33:14;98005.63;;;2.90;34.25
77077;BME280;66003;52.286;104.306;2023-02-28T07:35:40;97988.78;;;2.92;34.52
77077;BME280;66003;52.286;104.306;2023-02-28T07:38:07;97983.13;;;2.95;33.94
77077;BME280;66003;52.286;104.306;2023-02-28T07:40:34;97979.72;;;3.01;34.36
77077;BME280;66003;52.286;104.306;2023-02-28T07:43:01;97985.56;;;2.96;34.13
77077;BME280;66003;52.286;104.306;2023-02-28T07:45:27;97988.47;;;3.01;33.88
77077;BME280;66003;52.286;104.306;2023-02-28T07:47:58;97970.53;;;2.97;33.85
77077;BME280;66003;52.286;104.306;2023-02-28T07:50:24;97976.25;;;3.00;33.93
77077;BME280;66003;52.286;104.306;2023-02-28T07:52:50;97986.91;;;3.07;33.99
77077;BME280;66003;52.286;104.306;2023-02-28T07:55:16;97949.94;;;2.85;33.70
77077;BME280;66003;52.286;104.306;2023-02-28T07:57:43;97984.81;;;3.02;34.24
77077;BME280;66003;52.286;104.306;2023-02-28T08:00:11;97978.41;;;2.90;33.86
77077;BME280;66003;52.286;104.306;2023-02-28T08:02:38;97967.09;;;2.75;33.70
77077;BME280;66003;52.286;104.306;2023-02-28T08:05:05;97956.13;;;2.71;33.77
77077;BME280;66003;52.286;104.306;2023-02-28T08:07:31;97913.84;;;2.43;33.69
77077;BME280;66003;52.286;104.306;2023-02-28T08:09:59;97977.09;;;2.79;33.39
77077;BME280;66003;52.286;104.306;2023-02-28T08:12:26;97984.25;;;2.85;33.43
77077;BME280;66003;52.286;104.306;2023-02-28T08:14:52;97983.25;;;2.86;33.35
77077;BME280;66003;52.286;104.306;2023-02-28T08:17:18;97946.94;;;2.67;33.74
77077;BME280;66003;52.286;104.306;2023-02-28T08:19:47;97955.16;;;2.79;33.60
77077;BME280;66003;52.286;104.306;2023-02-28T08:22:13;97981.72;;;2.99;33.34
77077;BME280;66003;52.286;104.306;2023-02-28T08:24:41;97950.13;;;2.84;33.35
77077;BME280;66003;52.286;104.306;2023-02-28T08:27:08;97967.72;;;2.98;33.54
77077;BME280;66003;52.286;104.306;2023-02-28T08:29:37;97974.81;;;2.98;33.41
77077;BME280;66003;52.286;104.306;2023-02-28T08:32:05;97933.97;;;2.72;33.43
77077;BME280;66003;52.286;104.306;2023-02-28T08:34:39;97958.16;;;2.97;33.86
77077;BME280;66003;52.286;104.306;2023-02-28T08:37:06;97955.66;;;2.89;33.55
77077;BME280;66003;52.286;104.306;2023-02-28T08:39:35;97958.84;;;3.06;34.15
77077;BME280;66003;52.286;104.306;2023-02-28T08:42:02;97924.22;;;2.94;34.21
77077;BME280;66003;52.286;104.306;2023-02-28T08:44:29;97951.69;;;3.28;33.75
77077;BME280;66003;52.286;104.306;2023-02-28T08:46:55;97917.41;;;3.06;33.27
77077;BME280;66003;52.286;104.306;2023-02-28T08:49:21;97949.44;;;3.24;33.51
77077;BME280;66003;52.286;104.306;2023-02-28T08:51:47;97930.09;;;3.17;33.45
77077;BME280;66003;52.286;104.306;2023-02-28T08:54:13;97934.38;;;2.97;32.91
77077;BME280;66003;52.286;104.306;2023-02-28T08:56:41;97914.97;;;2.56;33.06
77077;BME280;66003;52.286;104.306;2023-02-28T08:59:09;97912.06;;;2.29;33.35
77077;BME280;66003;52.286;104.306;2023-02-28T09:01:35;97940.44;;;2.48;33.45
77077;BME280;66003;52.286;104.306;2023-02-28T09:04:02;97914.47;;;2.24;33.62
77077;BME280;66003;52.286;104.306;2023-02-28T09:06:28;97946.84;;;2.39;33.50
77077;BME280;66003;52.286;104.306;2023-02-28T09:08:58;97907.28;;;2.18;33.80
77077;BME280;66003;52.286;104.306;2023-02-28T09:11:25;97938.88;;;2.33;33.78
77077;BME280;66003;52.286;104.306;2023-02-28T09:13:51;97905.34;;;1.91;34.08
77077;BME280;66003;52.286;104.306;2023-02-28T09:16:18;97939.72;;;1.97;34.68
77077;BME280;66003;52.286;104.306;2023-02-28T09:18:45;97905.69;;;1.52;34.43
77077;BME280;66003;52.286;104.306;2023-02-28T09:21:14;97909.69;;;1.18;34.64
77077;BME280;66003;52.286;104.306;2023-02-28T09:23:41;97929.94;;;1.32;34.73
77077;BME280;66003;52.286;104.306;2023-02-28T09:26:11;97933.03;;;1.36;34.88
77077;BME280;66003;52.286;104.306;2023-02-28T09:28:38;97913.88;;;1.27;35.03
77077;BME280;66003;52.286;104.306;2023-02-28T09:31:05;97931.94;;;1.30;35.03
77077;BME280;66003;52.286;104.306;2023-02-28T09:33:31;97921.41;;;1.16;34.88
77077;BME280;66003;52.286;104.306;2023-02-28T09:35:59;97899.41;;;0.94;34.93
77077;BME280;66003;52.286;104.306;2023-02-28T09:38:26;97933.25;;;0.97;35.08
77077;BME280;66003;52.286;104.306;2023-02-28T09:40:59;97927.44;;;0.87;35.39
77077;BME280;66003;52.286;104.306;2023-02-28T09:43:35;97925.06;;;0.77;35.64
77077;BME280;66003;52.286;104.306;2023-02-28T09:48:59;97914.16;;;0.43;36.01
77077;BME280;66003;52.286;104.306;2023-02-28T09:51:46;97917.19;;;0.31;36.27
77077;BME280;66003;52.286;104.306;2023-02-28T09:54:21;97877.34;;;0.20;35.90
77077;BME280;66003;52.286;104.306;2023-02-28T09:57:01;97876.66;;;0.26;35.83
77077;BME280;66003;52.286;104.306;2023-02-28T10:00:02;97867.28;;;0.00;36.50
77077;BME280;66003;52.286;104.306;2023-02-28T10:08:29;97912.09;;;0.07;36.73
77077;BME280;66003;52.286;104.306;2023-02-28T10:11:03;97870.81;;;-0.38;36.92
77077;BME280;66003;52.286;104.306;2023-02-28T10:13:36;97902.06;;;-0.20;37.25
77077;BME280;66003;52.286;104.306;2023-02-28T10:16:39;97906.16;;;-0.18;37.12
77077;BME280;66003;52.286;104.306;2023-02-28T10:22:12;97900.75;;;-0.16;36.95
77077;BME280;66003;52.286;104.306;2023-02-28T10:24:47;97896.16;;;-0.22;36.92
77077;BME280;66003;52.286;104.306;2023-02-28T10:27:19;97897.81;;;-0.21;36.62
77077;BME280;66003;52.286;104.306;2023-02-28T10:29:51;97882.53;;;-0.49;36.95
77077;BME280;66003;52.286;104.306;2023-02-28T10:32:20;97865.41;;;-0.76;37.80
77077;BME280;66003;52.286;104.306;2023-02-28T10:35:00;97861.69;;;-0.89;37.60
77077;BME280;66003;52.286;104.306;2023-02-28T10:37:30;97886.41;;;-0.76;37.87
77077;BME280;66003;52.286;104.306;2023-02-28T10:39:58;97897.06;;;-0.77;38.35
77077;BME280;66003;52.286;104.306;2023-02-28T10:42:28;97896.25;;;-0.78;38.18
77077;BME280;66003;52.286;104.306;2023-02-28T10:50:50;97882.84;;;-0.91;37.97
77077;BME280;66003;52.286;104.306;2023-02-28T10:56:18;97852.03;;;-1.05;37.93
77077;BME280;66003;52.286;104.306;2023-02-28T10:58:57;97878.72;;;-0.85;38.25
77077;BME280;66003;52.286;104.306;2023-02-28T11:04:20;97812.97;;;-1.31;38.45
77077;BME280;66003;52.286;104.306;2023-02-28T11:07:18;97886.94;;;-0.88;38.75
77077;BME280;66003;52.286;104.306;2023-02-28T11:09:48;97873.50;;;-0.93;38.41
77077;BME280;66003;52.286;104.306;2023-02-28T11:12:31;97881.69;;;-0.88;38.66
77077;BME280;66003;52.286;104.306;2023-02-28T11:15:06;97850.56;;;-0.99;38.47
77077;BME280;66003;52.286;104.306;2023-02-28T11:17:44;97871.84;;;-0.86;38.50
77077;BME280;66003;52.286;104.306;2023-02-28T11:20:24;97824.25;;;-1.22;38.99
77077;BME280;66003;52.286;104.306;2023-02-28T11:22:51;97828.84;;;-1.32;39.48
77077;BME280;66003;52.286;104.306;2023-02-28T11:25:50;97876.97;;;-1.01;39.09
77077;BME280;66003;52.286;104.306;2023-02-28T11:28:43;97862.88;;;-1.16;39.88
77077;BME280;66003;52.286;104.306;2023-02-28T11:33:54;97855.75;;;-1.47;40.61
77077;BME280;66003;52.286;104.306;2023-02-28T11:36:29;97819.41;;;-1.58;39.25
77077;BME280;66003;52.286;104.306;2023-02-28T11:38:59;97848.22;;;-1.50;40.07
77077;BME280;66003;52.286;104.306;2023-02-28T11:41:54;97860.53;;;-1.66;40.48
77077;BME280;66003;52.286;104.306;2023-02-28T12:15:17;97867.13;;;-3.21;42.02
77077;BME280;66003;52.286;104.306;2023-02-28T12:17:55;97856.56;;;-3.37;41.90
77077;BME280;66003;52.286;104.306;2023-02-28T12:20:48;97853.63;;;-3.42;41.32
77077;BME280;66003;52.286;104.306;2023-02-28T12:29:09;97850.03;;;-3.85;43.83
77077;BME280;66003;52.286;104.306;2023-02-28T12:31:52;97847.84;;;-3.72;42.54
77077;BME280;66003;52.286;104.306;2023-02-28T12:34:27;97851.22;;;-3.79;43.15
77077;BME280;66003;52.286;104.306;2023-02-28T12:37:00;97841.28;;;-3.76;42.44
77077;BME280;66003;52.286;104.306;2023-02-28T12:39:42;97833.28;;;-3.74;43.21
77077;BME280;66003;52.286;104.306;2023-02-28T12:42:24;97829.56;;;-3.72;42.58
77077;BME280;66003;52.286;104.306;2023-02-28T12:44:56;97828.94;;;-4.09;44.34
77077;BME280;66003;52.286;104.306;2023-02-28T12:47:24;97818.50;;;-4.45;46.00
77077;BME280;66003;52.286;104.306;2023-02-28T12:50:02;97823.88;;;-4.28;45.63
77077;BME280;66003;52.286;104.306;2023-02-28T12:52:52;97814.19;;;-4.18;43.97
77077;BME280;66003;52.286;104.306;2023-02-28T12:55:33;97809.56;;;-4.24;44.18
77077;BME280;66003;52.286;104.306;2023-02-28T12:58:10;97822.69;;;-4.34;44.21
77077;BME280;66003;52.286;104.306;2023-02-28T13:00:56;97783.03;;;-4.55;44.22
77077;BME280;66003;52.286;104.306;2023-02-28T13:09:26;97786.25;;;-4.61;46.24
77077;BME280;66003;52.286;104.306;2023-02-28T13:11:53;97792.63;;;-4.56;46.40
77077;BME280;66003;52.286;104.306;2023-02-28T13:19:59;97824.69;;;-3.92;43.71
77077;BME280;66003;52.286;104.306;2023-02-28T13:24:53;97793.69;;;-4.66;46.13
77077;BME280;66003;52.286;104.306;2023-02-28T13:27:21;97811.19;;;-4.77;46.15
77077;BME280;66003;52.286;104.306;2023-02-28T13:29:53;97814.28;;;-4.91;46.43
77077;BME280;66003;52.286;104.306;2023-02-28T13:42:24;97797.03;;;-4.74;45.87
77077;BME280;66003;52.286;104.306;2023-02-28T13:53:13;97774.69;;;-4.59;44.54
77077;BME280;66003;52.286;104.306;2023-02-28T13:56:45;97769.00;;;-4.90;46.16
77077;BME280;66003;52.286;104.306;2023-02-28T14:06:50;97775.78;;;-4.79;45.39
77077;BME280;66003;52.286;104.306;2023-02-28T14:09:39;97734.31;;;-5.18;45.06
77077;BME280;66003;52.286;104.306;2023-02-28T14:15:46;97761.72;;;-5.14;44.69
77077;BME280;66003;52.286;104.306;2023-02-28T14:21:01;97757.06;;;-5.37;44.54
77077;BME280;66003;52.286;104.306;2023-02-28T14:32:25;97735.69;;;-5.68;47.25
77077;BME280;66003;52.286;104.306;2023-02-28T14:35:52;97737.22;;;-5.48;47.00
77077;BME280;66003;52.286;104.306;2023-02-28T14:37:51;97706.06;;;-5.40;44.70
77077;BME280;66003;52.286;104.306;2023-02-28T14:40:27;97721.81;;;-5.41;45.82
77077;BME280;66003;52.286;104.306;2023-02-28T14:42:58;97733.81;;;-5.49;46.35
77077;BME280;66003;52.286;104.306;2023-02-28T14:45:29;97732.25;;;-5.41;45.50
77077;BME280;66003;52.286;104.306;2023-02-28T14:47:56;97745.63;;;-5.27;44.74
77077;BME280;66003;52.286;104.306;2023-02-28T14:50:29;97696.38;;;-5.48;44.40
77077;BME280;66003;52.286;104.306;2023-02-28T14:52:57;97732.72;;;-5.28;44.50
77077;BME280;66003;52.286;104.306;2023-02-28T14:55:32;97728.06;;;-5.25;44.51
77077;BME280;66003;52.286;104.306;2023-02-28T14:58:01;97697.25;;;-5.57;44.39
77077;BME280;66003;52.286;104.306;2023-02-28T15:00:34;97726.00;;;-5.49;44.26
77077;BME280;66003;52.286;104.306;2023-02-28T15:03:38;97725.53;;;-5.71;44.58
77077;BME280;66003;52.286;104.306;2023-02-28T15:06:16;97724.88;;;-6.10;46.71
77077;BME280;66003;52.286;104.306;2023-02-28T15:08:44;97712.25;;;-6.05;45.79
77077;BME280;66003;52.286;104.306;2023-02-28T15:11:15;97725.16;;;-6.23;45.75
77077;BME280;66003;52.286;104.306;2023-02-28T15:13:48;97668.84;;;-6.51;45.75
77077;BME280;66003;52.286;104.306;2023-02-28T15:16:22;97662.13;;;-6.54;46.16
77077;BME280;66003;52.286;104.306;2023-02-28T15:18:51;97656.94;;;-6.54;46.11
77077;BME280;66003;52.286;104.306;2023-02-28T15:21:39;97694.81;;;-6.42;46.62
77077;BME280;66003;52.286;104.306;2023-02-28T15:26:43;97688.88;;;-6.25;45.99
77077;BME280;66003;52.286;104.306;2023-02-28T15:29:21;97675.22;;;-6.36;46.25
77077;BME280;66003;52.286;104.306;2023-02-28T15:31:56;97682.63;;;-6.32;45.98
77077;BME280;66003;52.286;104.306;2023-02-28T15:34:41;97655.97;;;-6.43;46.12
77077;BME280;66003;52.286;104.306;2023-02-28T15:37:27;97680.63;;;-6.67;48.47
77077;BME280;66003;52.286;104.306;2023-02-28T15:39:57;97655.25;;;-6.36;47.36
77077;BME280;66003;52.286;104.306;2023-02-28T15:42:28;97632.13;;;-6.29;46.35
77077;BME280;66003;52.286;104.306;2023-02-28T15:44:55;97659.41;;;-6.06;46.53
77077;BME280;66003;52.286;104.306;2023-02-28T15:47:24;97619.84;;;-6.09;45.34
77077;BME280;66003;52.286;104.306;2023-02-28T15:49:59;97653.75;;;-5.92;45.20
77077;BME280;66003;52.286;104.306;2023-02-28T15:52:38;97653.94;;;-5.85;45.32
77077;BME280;66003;52.286;104.306;2023-02-28T15:55:11;97651.78;;;-5.90;46.12
77077;BME280;66003;52.286;104.306;2023-02-28T15:57:42;97631.34;;;-6.49;47.50
77077;BME280;66003;52.286;104.306;2023-02-28T16:00:14;97608.41;;;-6.82;48.33
77077;BME280;66003;52.286;104.306;2023-02-28T16:02:41;97600.81;;;-6.37;47.21
77077;BME280;66003;52.286;104.306;2023-02-28T16:07:38;97628.69;;;-6.30;45.96
77077;BME280;66003;52.286;104.306;2023-02-28T16:10:07;97612.06;;;-6.56;46.32
77077;BME280;66003;52.286;104.306;2023-02-28T16:12:36;97610.00;;;-6.52;45.88
77077;BME280;66003;52.286;104.306;2023-02-28T16:15:29;97598.69;;;-6.71;46.86
77077;BME280;66003;52.286;104.306;2023-02-28T16:17:56;97609.63;;;-6.67;45.98
77077;BME280;66003;52.286;104.306;2023-02-28T16:20:28;97601.59;;;-6.74;45.98
77077;BME280;66003;52.286;104.306;2023-02-28T16:22:55;97576.31;;;-6.91;47.35
77077;BME280;66003;52.286;104.306;2023-02-28T16:25:37;97564.53;;;-6.95;45.89
77077;BME280;66003;52.286;104.306;2023-02-28T16:28:16;97583.28;;;-6.92;45.78
77077;BME280;66003;52.286;104.306;2023-02-28T16:30:43;97587.25;;;-6.87;46.70
77077;BME280;66003;52.286;104.306;2023-02-28T16:33:10;97568.66;;;-6.93;46.04
77077;BME280;66003;52.286;104.306;2023-02-28T16:35:36;97541.06;;;-7.13;45.63